Time;durP1;ratioP1;P1;durP2;ratioP2;P2;SDS_P1;SDS_P2;PMS_P1;PMS_P2;Temp;Humidity;BMP_temperature;BMP_pressure;BME280_temperature;BME280_humidity;BME280_pressure;Samples;Min_cycle;Max_cycle;Signal;HPM_P1;HPM_P2
2021/01/24 00:00:24;;;;;;;10.50;8.83;;;7.40;90.20;;;;;;5013751;28;20060;-64
2021/01/24 00:02:49;;;;;;;12.07;7.77;;;7.40;90.20;;;;;;5013642;28;20022;-63
2021/01/24 00:05:16;;;;;;;10.67;7.67;;;7.40;90.20;;;;;;5013782;28;20501;-63
2021/01/24 00:07:41;;;;;;;10.07;7.80;;;7.40;90.10;;;;;;5014216;28;20487;-64
2021/01/24 00:10:08;;;;;;;12.03;7.10;;;7.40;90.10;;;;;;5014050;28;20068;-64
2021/01/24 00:12:33;;;;;;;9.30;7.37;;;7.30;90.10;;;;;;5013851;28;20022;-63
2021/01/24 00:14:59;;;;;;;10.50;7.07;;;7.40;90.20;;;;;;5012409;28;20068;-64
2021/01/24 00:17:25;;;;;;;12.47;7.47;;;7.30;90.20;;;;;;5013073;28;20105;-64
2021/01/24 00:19:51;;;;;;;10.87;7.53;;;7.40;90.20;;;;;;5013623;28;20494;-63
2021/01/24 00:22:16;;;;;;;9.47;7.37;;;7.30;90.00;;;;;;5013754;28;20026;-63
2021/01/24 00:24:42;;;;;;;12.83;8.80;;;7.40;90.10;;;;;;5013539;28;20029;-63
2021/01/24 00:27:08;;;;;;;11.90;8.00;;;7.30;90.10;;;;;;5013647;28;20038;-63
2021/01/24 00:29:33;;;;;;;11.30;8.17;;;7.40;90.20;;;;;;5013510;28;20129;-64
2021/01/24 00:31:59;;;;;;;10.20;7.90;;;7.30;90.20;;;;;;5013432;28;20398;-64
2021/01/24 00:34:25;;;;;;;9.83;7.93;;;7.40;90.20;;;;;;5013741;28;20474;-63
2021/01/24 00:36:50;;;;;;;13.50;8.00;;;7.30;90.10;;;;;;5013595;28;20030;-64
2021/01/24 00:39:16;;;;;;;11.93;8.67;;;7.30;90.10;;;;;;5013263;28;20101;-64
2021/01/24 00:41:42;;;;;;;12.43;9.60;;;7.30;90.10;;;;;;5012506;28;20030;-64
2021/01/24 00:44:07;;;;;;;14.40;9.07;;;7.30;90.10;;;;;;5012927;28;20072;-64
2021/01/24 00:46:33;;;;;;;12.77;8.80;;;7.30;90.20;;;;;;5012797;28;20089;-64
2021/01/24 00:48:59;;;;;;;11.43;8.00;;;7.30;90.10;;;;;;5013192;28;20490;-64
2021/01/24 00:51:25;;;;;;;11.50;7.57;;;7.30;90.10;;;;;;5013348;28;20522;-64
2021/01/24 00:53:50;;;;;;;8.13;6.67;;;7.30;90.10;;;;;;5013370;28;20438;-64
2021/01/24 00:56:16;;;;;;;11.40;7.17;;;7.40;90.10;;;;;;5013137;28;20029;-64
2021/01/24 00:58:42;;;;;;;9.93;6.80;;;7.30;90.10;;;;;;5013142;28;20073;-63
2021/01/24 01:01:08;;;;;;;11.17;7.50;;;7.30;90.10;;;;;;5013205;28;20057;-64
2021/01/24 01:03:34;;;;;;;9.33;6.97;;;7.30;90.20;;;;;;5013129;28;20061;-64
2021/01/24 01:05:59;;;;;;;10.87;7.33;;;7.30;90.10;;;;;;5013165;28;20068;-64
2021/01/24 01:08:25;;;;;;;12.60;6.80;;;7.30;90.10;;;;;;5013148;28;20026;-64
2021/01/24 01:10:51;;;;;;;10.00;7.53;;;7.30;90.20;;;;;;5013170;28;20029;-64
2021/01/24 01:13:16;;;;;;;15.13;8.27;;;7.30;90.10;;;;;;5013121;28;20048;-64
2021/01/24 01:15:42;;;;;;;11.17;7.90;;;7.30;90.20;;;;;;5013045;28;20490;-64
2021/01/24 01:18:08;;;;;;;14.17;7.40;;;7.30;90.20;;;;;;5013138;28;20037;-64
2021/01/24 01:20:33;;;;;;;8.73;7.73;;;7.30;90.30;;;;;;5013281;28;20053;-64
2021/01/24 01:22:59;;;;;;;10.47;8.20;;;7.30;90.20;;;;;;5013071;28;20471;-64
2021/01/24 01:25:25;;;;;;;13.00;8.50;;;7.30;90.20;;;;;;5013161;28;20060;-64
2021/01/24 01:27:51;;;;;;;11.27;9.10;;;7.30;90.20;;;;;;5012905;28;20120;-64
2021/01/24 01:30:17;;;;;;;15.43;9.73;;;7.30;90.20;;;;;;5012947;28;20029;-64
2021/01/24 01:32:43;;;;;;;11.03;7.23;;;7.30;90.30;;;;;;5013016;28;20026;-64
2021/01/24 01:35:09;;;;;;;8.83;6.70;;;7.30;90.30;;;;;;5012837;28;20060;-64
2021/01/24 01:37:35;;;;;;;10.87;7.00;;;7.30;90.40;;;;;;5012683;28;20081;-64
2021/01/24 01:40:02;;;;;;;8.93;7.00;;;7.30;90.40;;;;;;5012308;28;20483;-64
2021/01/24 01:42:28;;;;;;;10.57;7.23;;;7.30;90.50;;;;;;5012052;28;20108;-64
2021/01/24 01:44:53;;;;;;;9.23;7.07;;;7.30;90.40;;;;;;5012752;28;20522;-64
2021/01/24 01:47:24;;;;;;;14.37;7.47;;;7.30;90.30;;;;;;5012760;28;20096;-64
2021/01/24 01:49:55;;;;;;;9.90;6.83;;;7.30;90.40;;;;;;5012708;28;20026;-64
2021/01/24 01:52:26;;;;;;;8.33;5.47;;;7.30;90.30;;;;;;5014418;28;20080;-64
2021/01/24 01:54:53;;;;;;;9.83;6.47;;;7.30;90.30;;;;;;5015676;28;20029;-64
2021/01/24 01:57:20;;;;;;;8.80;5.17;;;7.30;90.30;;;;;;5015743;28;20022;-63
2021/01/24 01:59:47;;;;;;;6.80;5.13;;;7.30;90.10;;;;;;5013195;28;20065;-64
2021/01/24 02:02:28;;;;;;;6.30;4.93;;;7.30;90.10;;;;;;5013773;28;20551;-64
2021/01/24 02:05:10;;;;;;;5.50;4.60;;;7.30;90.10;;;;;;5015006;28;20060;-65
2021/01/24 02:07:50;;;;;;;7.03;4.17;;;7.30;90.00;;;;;;5016272;28;20034;-64
2021/01/24 02:10:32;;;;;;;7.17;4.77;;;7.30;90.00;;;;;;5015941;28;20026;-64
2021/01/24 02:13:20;;;;;;;5.53;4.23;;;7.30;90.00;;;;;;5015542;28;20498;-64
2021/01/24 02:15:46;;;;;;;4.80;4.30;;;7.30;90.00;;;;;;5005894;28;20074;-64
2021/01/24 02:18:14;;;;;;;7.13;4.40;;;7.20;89.90;;;;;;5015976;28;20084;-64
2021/01/24 02:21:08;;;;;;;4.83;4.33;;;7.20;89.90;;;;;;5015717;28;20070;-64
2021/01/24 02:23:34;;;;;;;6.20;4.70;;;7.20;90.00;;;;;;5015826;28;20026;-64
2021/01/24 02:26:12;;;;;;;5.80;4.97;;;7.20;90.10;;;;;;5014457;28;20458;-64
2021/01/24 02:29:28;;;;;;;8.33;4.00;;;7.10;90.20;;;;;;5015564;28;20137;-64
2021/01/24 02:31:59;;;;;;;5.53;3.93;;;7.10;90.20;;;;;;4994177;28;20023;-64
2021/01/24 02:34:30;;;;;;;5.27;3.83;;;7.20;90.10;;;;;;5013936;28;20077;-64
2021/01/24 02:36:58;;;;;;;5.17;4.07;;;7.10;90.30;;;;;;5015161;28;20033;-64
2021/01/24 02:39:24;;;;;;;10.80;4.17;;;7.10;90.00;;;;;;5015575;28;20165;-64
2021/01/24 02:41:50;;;;;;;7.00;4.07;;;7.10;90.00;;;;;;5015433;28;20052;-64
2021/01/24 02:44:17;;;;;;;5.70;4.10;;;7.10;90.10;;;;;;5015177;28;20101;-64
2021/01/24 02:46:45;;;;;;;4.50;3.77;;;7.10;90.10;;;;;;5014050;28;20390;-64
2021/01/24 02:49:12;;;;;;;4.73;3.50;;;7.10;90.20;;;;;;5015409;28;20026;-64
2021/01/24 02:51:39;;;;;;;5.87;4.03;;;7.10;90.20;;;;;;5015193;28;20034;-64
2021/01/24 02:54:05;;;;;;;7.13;4.00;;;7.10;90.20;;;;;;5015730;28;20026;-64
2021/01/24 02:56:31;;;;;;;5.50;3.60;;;7.10;90.10;;;;;;5015418;28;20439;-64
2021/01/24 02:58:57;;;;;;;6.43;3.67;;;7.10;90.10;;;;;;5014685;28;20079;-64
2021/01/24 03:01:23;;;;;;;5.33;3.60;;;7.10;90.10;;;;;;5014925;28;20064;-64
2021/01/24 03:03:49;;;;;;;4.63;3.60;;;7.10;90.00;;;;;;5014197;28;20022;-64
2021/01/24 03:06:15;;;;;;;4.17;3.30;;;7.10;90.00;;;;;;5015014;28;20487;-64
2021/01/24 03:08:42;;;;;;;4.27;3.20;;;7.10;90.10;;;;;;5014769;28;20025;-63
2021/01/24 03:11:10;;;;;;;3.70;2.93;;;7.10;90.00;;;;;;5014801;28;20026;-64
2021/01/24 03:13:43;;;;;;;3.93;3.00;;;7.10;90.00;;;;;;5015011;28;20076;-64
2021/01/24 03:16:11;;;;;;;;;;;7.00;90.00;;;;;;5015382;28;20390;-64
2021/01/24 03:18:38;;;;;;;5.43;2.93;;;7.00;89.90;;;;;;5014720;28;19953;-64
2021/01/24 03:21:04;;;;;;;4.57;2.97;;;7.00;89.90;;;;;;5014722;28;20057;-64
2021/01/24 03:23:32;;;;;;;4.43;2.93;;;7.00;89.90;;;;;;5014860;28;20084;-64
2021/01/24 03:25:58;;;;;;;3.97;2.80;;;7.00;89.70;;;;;;5014511;28;20034;-64
2021/01/24 03:28:24;;;;;;;3.00;2.50;;;6.90;89.50;;;;;;5014645;28;20017;-64
2021/01/24 03:30:49;;;;;;;6.03;3.20;;;6.90;89.60;;;;;;5014604;28;20022;-64
2021/01/24 03:33:15;;;;;;;4.20;3.10;;;6.90;89.90;;;;;;5014756;28;20410;-64
2021/01/24 03:35:41;;;;;;;4.70;3.10;;;6.90;89.90;;;;;;5014564;28;20410;-64
2021/01/24 03:38:07;;;;;;;4.83;3.30;;;6.90;90.00;;;;;;5014339;28;20060;-64
2021/01/24 03:40:32;;;;;;;5.20;3.10;;;6.90;90.00;;;;;;5014408;28;20113;-64
2021/01/24 03:42:58;;;;;;;4.93;3.30;;;6.90;89.80;;;;;;5014618;28;20030;-63
2021/01/24 03:45:24;;;;;;;4.87;3.30;;;6.90;89.70;;;;;;5014384;28;20105;-64
2021/01/24 03:47:50;;;;;;;4.87;3.30;;;6.90;89.60;;;;;;5014391;28;20486;-64
2021/01/24 03:50:15;;;;;;;8.00;3.50;;;6.90;89.10;;;;;;5014191;28;20479;-64
2021/01/24 03:52:41;;;;;;;9.70;3.97;;;6.80;89.20;;;;;;5014242;28;20026;-64
2021/01/24 03:55:07;;;;;;;7.17;4.10;;;6.80;89.50;;;;;;5014316;28;20029;-64
2021/01/24 03:57:33;;;;;;;5.53;4.30;;;6.80;89.50;;;;;;5014058;28;20026;-64
2021/01/24 03:59:59;;;;;;;5.50;3.93;;;6.70;89.60;;;;;;5014133;28;20482;-64
2021/01/24 04:02:25;;;;;;;5.90;4.27;;;6.80;89.60;;;;;;5014275;28;20061;-64
2021/01/24 04:04:50;;;;;;;9.63;4.40;;;6.70;89.40;;;;;;5013794;28;20088;-63
2021/01/24 04:07:16;;;;;;;5.33;4.63;;;6.70;89.10;;;;;;5013630;28;20064;-64
2021/01/24 04:09:42;;;;;;;6.23;4.50;;;6.70;89.50;;;;;;5014004;28;20390;-64
2021/01/24 04:12:09;;;;;;;5.83;4.20;;;6.70;89.50;;;;;;5013779;28;20030;-64
2021/01/24 04:14:35;;;;;;;5.50;4.30;;;6.70;89.60;;;;;;5013901;28;20467;-64
2021/01/24 04:17:02;;;;;;;7.13;5.10;;;6.70;89.50;;;;;;5013816;28;20025;-63
2021/01/24 04:19:28;;;;;;;7.87;6.00;;;6.70;89.60;;;;;;5013657;28;20490;-63
2021/01/24 04:21:53;;;;;;;8.07;6.20;;;6.70;89.60;;;;;;5013708;28;20119;-64
2021/01/24 04:24:19;;;;;;;6.17;5.37;;;6.70;89.60;;;;;;5013765;28;20153;-64
2021/01/24 04:26:45;;;;;;;11.60;7.97;;;6.60;89.50;;;;;;5013717;28;20044;-64
2021/01/24 04:29:10;;;;;;;10.77;9.20;;;6.60;89.80;;;;;;5013388;28;20586;-64
2021/01/24 04:31:36;;;;;;;12.93;10.77;;;6.60;90.00;;;;;;5013804;28;20538;-64
2021/01/24 04:34:02;;;;;;;13.57;9.43;;;6.70;90.10;;;;;;5013411;28;20026;-64
2021/01/24 04:36:27;;;;;;;10.97;9.07;;;6.60;90.10;;;;;;5013823;28;20056;-64
2021/01/24 04:38:53;;;;;;;11.13;7.73;;;6.60;90.10;;;;;;5013524;28;20530;-64
2021/01/24 04:41:19;;;;;;;10.70;8.43;;;6.60;90.40;;;;;;5013267;28;20032;-64
2021/01/24 04:43:49;;;;;;;11.87;9.20;;;6.60;90.20;;;;;;5013353;28;20433;-64
2021/01/24 04:46:14;;;;;;;11.20;8.93;;;6.60;90.20;;;;;;5013777;28;20430;-64
2021/01/24 04:48:40;;;;;;;11.07;8.43;;;6.60;90.20;;;;;;5013256;28;20021;-64
2021/01/24 04:51:06;;;;;;;12.17;8.90;;;6.60;90.10;;;;;;5013644;28;20026;-64
2021/01/24 04:53:32;;;;;;;9.47;8.47;;;6.60;90.10;;;;;;5013499;28;20033;-64
2021/01/24 04:56:00;;;;;;;9.57;7.87;;;6.60;90.20;;;;;;5013411;28;20101;-64
2021/01/24 04:58:27;;;;;;;8.57;6.77;;;6.60;90.20;;;;;;5013031;28;20029;-64
2021/01/24 05:00:53;;;;;;;7.97;6.47;;;6.60;90.20;;;;;;5013281;28;20076;-64
2021/01/24 05:03:18;;;;;;;14.57;6.27;;;6.60;90.10;;;;;;5012046;28;20490;-64
2021/01/24 05:05:44;;;;;;;8.23;6.53;;;6.70;90.20;;;;;;5013187;28;20065;-64
2021/01/24 05:08:11;;;;;;;8.83;6.47;;;6.60;90.20;;;;;;5013172;28;20379;-64
2021/01/24 05:10:37;;;;;;;8.77;6.03;;;6.70;90.30;;;;;;5013043;28;20026;-64
2021/01/24 05:13:03;;;;;;;8.00;6.37;;;6.70;90.20;;;;;;5013060;28;20029;-64
2021/01/24 05:15:29;;;;;;;8.33;6.40;;;6.70;90.20;;;;;;5013026;28;20065;-64
2021/01/24 05:17:57;;;;;;;10.43;7.13;;;6.70;90.20;;;;;;5013278;28;20156;-64
2021/01/24 05:20:30;;;;;;;11.73;7.40;;;6.70;90.20;;;;;;5012846;28;20084;-64
2021/01/24 05:22:57;;;;;;;7.47;6.67;;;6.70;90.30;;;;;;5013015;28;20368;-64
2021/01/24 05:25:27;;;;;;;11.23;7.10;;;6.70;90.20;;;;;;5012967;28;20467;-64
2021/01/24 05:27:53;;;;;;;10.53;7.93;;;6.70;90.20;;;;;;5016047;28;20052;-64
2021/01/24 05:30:36;;;;;;;10.17;7.37;;;6.70;90.10;;;;;;5016803;28;20104;-64
2021/01/24 05:33:02;;;;;;;9.13;6.63;;;6.70;90.10;;;;;;5016782;28;20476;-64
2021/01/24 05:35:28;;;;;;;9.67;7.27;;;6.60;90.00;;;;;;5015572;28;20034;-63
2021/01/24 05:37:54;;;;;;;12.00;6.63;;;6.60;90.00;;;;;;5016061;28;20057;-64
2021/01/24 05:40:20;;;;;;;6.60;5.90;;;6.60;90.00;;;;;;5016020;28;20056;-64
2021/01/24 05:42:46;;;;;;;8.93;6.57;;;6.60;89.70;;;;;;5015805;28;20025;-64
2021/01/24 05:45:17;;;;;;;7.33;6.20;;;6.60;89.90;;;;;;5016361;28;20029;-64
2021/01/24 05:47:44;;;;;;;7.23;5.90;;;6.50;89.90;;;;;;5016408;28;20038;-64
2021/01/24 05:50:15;;;;;;;11.17;6.30;;;6.60;90.00;;;;;;5016231;28;20053;-63
2021/01/24 05:52:50;;;;;;;7.80;6.70;;;6.50;89.70;;;;;;5015800;28;20036;-64
2021/01/24 05:55:33;;;;;;;9.00;7.33;;;6.50;89.40;;;;;;5015832;28;20022;-63
2021/01/24 05:57:59;;;;;;;8.68;7.60;;;6.50;89.50;;;;;;5015655;28;20040;-64
2021/01/24 06:00:25;;;;;;;7.83;6.90;;;6.50;89.60;;;;;;5016222;28;20025;-64
2021/01/24 06:02:53;;;;;;;8.07;6.67;;;6.40;89.40;;;;;;5015926;28;20077;-64
2021/01/24 06:05:18;;;;;;;8.47;7.50;;;6.40;89.40;;;;;;5015763;28;20026;-64
2021/01/24 06:07:44;;;;;;;10.40;7.57;;;6.40;89.30;;;;;;5015631;28;20045;-63
2021/01/24 06:10:10;;;;;;;10.27;7.13;;;6.40;89.40;;;;;;5015450;28;20022;-64
2021/01/24 06:12:39;;;;;;;7.63;6.37;;;6.30;89.20;;;;;;5015573;28;20382;-64
2021/01/24 06:15:08;;;;;;;7.63;6.23;;;6.30;88.60;;;;;;5016189;28;20029;-64
2021/01/24 06:17:38;;;;;;;7.37;6.50;;;6.30;88.90;;;;;;5016167;28;20022;-64
2021/01/24 06:20:08;;;;;;;7.33;6.63;;;6.30;89.00;;;;;;5015915;28;20054;-64
2021/01/24 06:22:58;;;;;;;8.50;6.73;;;6.20;88.90;;;;;;5015859;28;20033;-64
2021/01/24 06:25:30;;;;;;;8.00;6.83;;;6.20;88.70;;;;;;5015894;28;20026;-64
2021/01/24 06:28:00;;;;;;;6.97;6.28;;;6.20;89.20;;;;;;5015553;28;20026;-64
2021/01/24 06:30:28;;;;;;;10.13;6.43;;;6.10;89.30;;;;;;5016451;28;20371;-64
2021/01/24 06:32:54;;;;;;;7.23;5.60;;;6.20;89.30;;;;;;5015974;28;20029;-64
2021/01/24 06:35:25;;;;;;;6.90;5.57;;;6.10;89.20;;;;;;5015958;28;20026;-64
2021/01/24 06:38:01;;;;;;;8.47;5.93;;;6.10;89.00;;;;;;5014662;28;20364;-63
2021/01/24 06:40:31;;;;;;;8.80;6.03;;;6.10;89.70;;;;;;5015694;28;20491;-64
2021/01/24 06:43:04;;;;;;;7.37;5.43;;;6.10;89.20;;;;;;5015596;28;20033;-64
2021/01/24 06:45:30;;;;;;;6.18;5.32;;;6.10;89.10;;;;;;5015677;28;20088;-64
2021/01/24 06:47:57;;;;;;;6.63;5.37;;;6.00;89.20;;;;;;5015699;28;20038;-63
2021/01/24 06:50:49;;;;;;;8.43;5.33;;;6.10;89.30;;;;;;5015732;28;20107;-63
2021/01/24 06:53:17;;;;;;;6.33;4.83;;;6.00;89.10;;;;;;5015549;28;20033;-62
2021/01/24 06:55:58;;;;;;;8.37;4.90;;;6.00;89.50;;;;;;5015462;28;20026;-63
2021/01/24 06:58:29;;;;;;;9.13;4.83;;;6.00;89.60;;;;;;5014944;28;20018;-63
2021/01/24 07:01:19;;;;;;;8.27;4.77;;;6.00;90.10;;;;;;5015483;28;20149;-63
2021/01/24 07:03:45;;;;;;;6.77;4.93;;;6.10;89.80;;;;;;5015273;28;20026;-63
2021/01/24 07:06:31;;;;;;;5.17;3.90;;;6.10;90.00;;;;;;5015459;28;20509;-63
2021/01/24 07:08:57;;;;;;;6.00;3.70;;;6.10;89.90;;;;;;5014211;28;20026;-66
2021/01/24 07:11:51;;;;;;;4.30;3.70;;;6.10;90.00;;;;;;5014285;28;20072;-64
2021/01/24 07:14:32;;;;;;;7.10;4.13;;;6.10;90.00;;;;;;5014858;28;20040;-63
2021/01/24 07:17:19;;;;;;;5.47;4.33;;;6.20;90.10;;;;;;5014836;28;20031;-64
2021/01/24 07:19:49;;;;;;;8.27;4.47;;;6.20;90.10;;;;;;5014651;28;20037;-63
2021/01/24 07:22:17;;;;;;;6.50;4.80;;;6.20;90.00;;;;;;5014625;28;20390;-63
2021/01/24 07:24:45;;;;;;;6.90;5.30;;;6.20;90.00;;;;;;5014529;28;20450;-64
2021/01/24 07:27:12;;;;;;;7.37;5.40;;;6.20;90.00;;;;;;5012801;28;20454;-63
2021/01/24 07:29:38;;;;;;;6.83;5.37;;;6.20;90.10;;;;;;5013754;28;20480;-64
2021/01/24 07:32:14;;;;;;;6.53;5.30;;;6.30;90.10;;;;;;5012453;28;20081;-64
2021/01/24 07:34:41;;;;;;;8.80;6.10;;;6.30;90.10;;;;;;5013862;28;20029;-64
2021/01/24 07:37:07;;;;;;;12.07;6.90;;;6.30;90.20;;;;;;5014478;28;20430;-64
2021/01/24 07:39:34;;;;;;;6.90;5.83;;;6.30;90.20;;;;;;5014553;28;20114;-64
2021/01/24 07:42:01;;;;;;;11.63;5.20;;;6.30;90.20;;;;;;5014636;28;20064;-63
2021/01/24 07:44:27;;;;;;;9.17;5.93;;;6.40;90.20;;;;;;5012601;28;20030;-63
2021/01/24 07:46:53;;;;;;;10.23;5.87;;;6.40;90.20;;;;;;5013666;28;20546;-64
2021/01/24 07:49:19;;;;;;;9.43;5.63;;;6.40;90.10;;;;;;5012975;28;20096;-64
2021/01/24 07:51:46;;;;;;;6.93;5.50;;;6.40;90.10;;;;;;5011969;28;20038;-64
2021/01/24 07:54:14;;;;;;;9.33;5.00;;;6.50;90.10;;;;;;5010182;28;20029;-62
2021/01/24 07:56:41;;;;;;;7.90;5.13;;;6.50;90.20;;;;;;5011113;28;20048;-66
2021/01/24 07:59:07;;;;;;;8.00;4.50;;;6.50;90.40;;;;;;5011790;28;20030;-63
2021/01/24 08:01:33;;;;;;;6.00;3.87;;;6.50;90.10;;;;;;5013934;28;20022;-64
2021/01/24 08:04:04;;;;;;;9.20;4.47;;;6.50;90.00;;;;;;5013937;28;20068;-63
2021/01/24 08:06:32;;;;;;;6.70;5.40;;;6.50;90.30;;;;;;5013220;28;20128;-62
2021/01/24 08:08:57;;;;;;;6.47;4.57;;;6.60;90.00;;;;;;5012951;28;20028;-64
2021/01/24 08:11:23;;;;;;;7.93;5.50;;;6.60;90.10;;;;;;5013794;28;20391;-69
2021/01/24 08:13:49;;;;;;;8.60;4.93;;;6.60;90.10;;;;;;5012978;28;20048;-69
2021/01/24 08:16:20;;;;;;;7.23;5.23;;;6.60;90.10;;;;;;5013364;28;20064;-71
2021/01/24 08:18:50;;;;;;;6.77;4.53;;;6.60;90.20;;;;;;5012601;28;20030;-69
2021/01/24 08:21:16;;;;;;;6.27;4.53;;;6.70;90.20;;;;;;5011810;28;20037;-70
2021/01/24 08:23:43;;;;;;;8.97;4.80;;;6.70;90.20;;;;;;5013350;28;20033;-71
2021/01/24 08:26:09;;;;;;;8.97;4.67;;;6.70;90.40;;;;;;5013009;28;20042;-69
2021/01/24 08:28:37;;;;;;;9.33;4.37;;;6.80;90.20;;;;;;5011468;28;20030;-68
2021/01/24 08:31:04;;;;;;;8.23;4.50;;;6.80;90.10;;;;;;5010496;28;20030;-68
2021/01/24 08:33:30;;;;;;;6.97;3.90;;;6.80;90.00;;;;;;5012175;28;20033;-69
2021/01/24 08:36:17;;;;;;;5.97;3.90;;;6.80;90.00;;;;;;5012938;28;20025;-68
2021/01/24 08:38:45;;;;;;;7.00;4.40;;;6.80;89.90;;;;;;5010849;28;20030;-69
2021/01/24 08:41:12;;;;;;;8.73;3.97;;;6.90;90.00;;;;;;5012409;28;20050;-69
2021/01/24 08:43:38;;;;;;;6.03;3.50;;;6.90;89.80;;;;;;5013586;28;20033;-69
2021/01/24 08:46:26;;;;;;;5.23;3.30;;;6.90;89.90;;;;;;5013150;28;20108;-70
2021/01/24 08:49:09;;;;;;;9.60;3.70;;;6.90;89.70;;;;;;5013189;28;20034;-69
2021/01/24 08:51:52;;;;;;;6.15;3.20;;;6.90;89.60;;;;;;5013295;28;20037;-69
2021/01/24 08:54:32;;;;;;;5.07;3.00;;;6.90;89.50;;;;;;5013487;28;20076;-69
2021/01/24 08:57:14;;;;;;;4.83;3.20;;;7.00;89.50;;;;;;5013378;28;20395;-69
2021/01/24 08:59:56;;;;;;;5.43;3.03;;;7.00;89.60;;;;;;5013309;28;20506;-70
2021/01/24 09:02:36;;;;;;;5.70;2.25;;;7.00;89.50;;;;;;5012422;28;20034;-69
2021/01/24 09:05:04;;;;;;;5.73;2.63;;;7.00;88.90;;;;;;5013256;28;20562;-69
2021/01/24 09:07:36;;;;;;;5.47;2.70;;;7.00;88.90;;;;;;5012969;28;20064;-69
2021/01/24 09:10:24;;;;;;;5.77;2.50;;;7.10;89.00;;;;;;5013312;28;20080;-69
2021/01/24 09:13:08;;;;;;;8.47;2.83;;;7.10;88.70;;;;;;5011092;28;20368;-69
2021/01/24 09:15:34;;;;;;;4.63;2.50;;;7.10;88.30;;;;;;5012024;28;20069;-69
2021/01/24 09:18:01;;;;;;;7.20;3.40;;;7.10;88.20;;;;;;5011081;28;20022;-69
2021/01/24 09:20:28;;;;;;;5.13;3.10;;;7.10;88.20;;;;;;5011943;28;20053;-70
2021/01/24 09:22:54;;;;;;;4.53;2.53;;;7.20;88.10;;;;;;5012406;28;20029;-69
2021/01/24 09:25:20;;;;;;;5.87;2.90;;;7.20;87.90;;;;;;5011614;28;20459;-70
2021/01/24 09:27:46;;;;;;;3.53;2.50;;;7.20;87.70;;;;;;5012768;28;20030;-68
2021/01/24 09:30:14;;;;;;;7.47;2.73;;;7.20;87.70;;;;;;5012617;28;20022;-70
2021/01/24 09:32:40;;;;;;;5.70;2.43;;;7.30;87.60;;;;;;5011562;28;20167;-70
2021/01/24 09:35:07;;;;;;;10.67;3.20;;;7.30;87.60;;;;;;5010211;28;20479;-69
2021/01/24 09:37:32;;;;;;;7.17;2.73;;;7.30;87.40;;;;;;5010224;28;20034;-70
2021/01/24 09:39:58;;;;;;;7.10;2.73;;;7.30;87.40;;;;;;5012457;28;20132;-69
2021/01/24 09:42:24;;;;;;;6.60;3.30;;;7.30;87.50;;;;;;5012466;28;20084;-69
2021/01/24 09:44:50;;;;;;;6.63;3.00;;;7.40;87.60;;;;;;5011069;28;20037;-69
2021/01/24 09:47:15;;;;;;;4.87;3.03;;;7.40;88.10;;;;;;5011817;28;20034;-69
2021/01/24 09:49:41;;;;;;;7.33;3.37;;;7.40;87.70;;;;;;5012758;28;20030;-69
2021/01/24 09:52:07;;;;;;;9.10;3.00;;;7.50;87.60;;;;;;5012805;28;20029;-69
2021/01/24 09:54:33;;;;;;;5.37;2.70;;;7.50;87.60;;;;;;5012726;28;20076;-69
2021/01/24 09:56:58;;;;;;;4.67;2.73;;;7.50;87.10;;;;;;5012978;28;20394;-69
2021/01/24 09:59:24;;;;;;;5.50;3.43;;;7.50;86.80;;;;;;5009936;28;20485;-69
2021/01/24 10:01:51;;;;;;;10.10;5.27;;;7.50;86.70;;;;;;5009953;28;20042;-69
2021/01/24 10:04:16;;;;;;;4.47;2.67;;;7.50;86.20;;;;;;5010713;28;20105;-69
2021/01/24 10:06:42;;;;;;;4.63;2.57;;;7.50;86.40;;;;;;5012352;28;20530;-69
2021/01/24 10:09:09;;;;;;;5.30;2.40;;;7.50;86.30;;;;;;5012141;28;20041;-69
2021/01/24 10:11:35;;;;;;;5.43;2.70;;;7.50;86.50;;;;;;5012629;28;20041;-69
2021/01/24 10:14:00;;;;;;;3.93;2.07;;;7.50;86.60;;;;;;5015379;28;20434;-69
2021/01/24 10:16:26;;;;;;;5.43;3.03;;;7.50;87.00;;;;;;5015262;28;20081;-70
2021/01/24 10:18:52;;;;;;;4.90;2.30;;;7.50;87.20;;;;;;5015391;28;20113;-70
2021/01/24 10:21:17;;;;;;;3.97;2.53;;;7.50;87.30;;;;;;5015343;28;20099;-69
2021/01/24 10:23:43;;;;;;;4.50;2.30;;;7.50;87.20;;;;;;5015610;28;20105;-69
2021/01/24 10:26:09;;;;;;;5.57;4.60;;;7.50;87.40;;;;;;5015874;28;20037;-69
2021/01/24 10:28:35;;;;;;;6.60;4.07;;;7.50;87.40;;;;;;5015322;28;20498;-69
2021/01/24 10:31:01;;;;;;;4.83;3.50;;;7.50;87.10;;;;;;5015772;28;20040;-69
2021/01/24 10:33:27;;;;;;;5.60;3.40;;;7.50;86.80;;;;;;5015505;28;20018;-68
2021/01/24 10:35:53;;;;;;;4.93;2.80;;;7.60;86.60;;;;;;5015432;28;20032;-69
2021/01/24 10:38:23;;;;;;;5.87;2.83;;;7.60;86.60;;;;;;5015334;28;20108;-69
2021/01/24 10:40:49;;;;;;;6.17;3.00;;;7.60;86.40;;;;;;5015019;28;20030;-69
2021/01/24 10:43:15;;;;;;;4.17;2.97;;;7.60;86.20;;;;;;5014437;28;20038;-68
2021/01/24 10:45:41;;;;;;;5.83;3.40;;;7.60;86.10;;;;;;5015654;28;20034;-69
2021/01/24 10:48:07;;;;;;;4.47;2.93;;;7.60;85.90;;;;;;5014961;28;20394;-69
2021/01/24 10:50:35;;;;;;;4.57;2.80;;;7.70;85.80;;;;;;5015318;28;20069;-69
2021/01/24 10:53:02;;;;;;;4.60;3.00;;;7.70;85.90;;;;;;5015669;28;20057;-69
2021/01/24 10:55:28;;;;;;;5.20;2.90;;;7.70;86.20;;;;;;5015341;28;20551;-69
2021/01/24 10:57:53;;;;;;;4.27;2.70;;;7.70;86.40;;;;;;5015187;28;20112;-69
2021/01/24 11:00:19;;;;;;;10.37;3.80;;;7.70;86.30;;;;;;5015425;28;20056;-69
2021/01/24 11:02:45;;;;;;;8.17;4.67;;;7.70;86.20;;;;;;5015417;28;20034;-69
2021/01/24 11:05:11;;;;;;;7.63;4.43;;;7.70;86.40;;;;;;5015384;28;20045;-69
2021/01/24 11:07:37;;;;;;;6.60;4.40;;;7.80;86.40;;;;;;5014868;28;20034;-70
2021/01/24 11:10:05;;;;;;;8.07;4.10;;;7.80;86.50;;;;;;5015128;28;20026;-69
2021/01/24 11:12:31;;;;;;;9.83;5.50;;;7.80;86.80;;;;;;5015223;28;20030;-70
2021/01/24 11:14:57;;;;;;;10.27;5.07;;;7.80;86.90;;;;;;5014947;28;20494;-70
2021/01/24 11:17:22;;;;;;;11.10;6.17;;;7.80;86.80;;;;;;5015315;28;20033;-69
2021/01/24 11:19:51;;;;;;;11.07;6.53;;;7.80;86.70;;;;;;5014575;28;20072;-69
2021/01/24 11:22:24;;;;;;;12.20;6.83;;;7.80;86.60;;;;;;5014855;28;20022;-70
2021/01/24 11:24:50;;;;;;;8.00;5.60;;;7.80;86.60;;;;;;5014389;28;20536;-71
2021/01/24 11:27:16;;;;;;;8.93;4.93;;;7.80;86.40;;;;;;5014727;28;20033;-70
2021/01/24 11:29:42;;;;;;;9.30;5.60;;;7.80;86.30;;;;;;5014678;28;20048;-69
2021/01/24 11:32:09;;;;;;;8.93;5.23;;;7.80;86.20;;;;;;5014585;28;20482;-69
2021/01/24 11:34:39;;;;;;;11.13;5.87;;;7.80;86.10;;;;;;5015124;28;20026;-70
2021/01/24 11:37:06;;;;;;;8.17;5.60;;;7.80;86.00;;;;;;5014705;28;20054;-69
2021/01/24 11:39:32;;;;;;;10.60;7.00;;;7.80;86.30;;;;;;5014498;28;20026;-70
2021/01/24 11:41:58;;;;;;;9.30;5.97;;;7.80;86.40;;;;;;5014432;28;20057;-69
2021/01/24 11:44:24;;;;;;;10.53;6.53;;;7.80;86.40;;;;;;5014146;28;20014;-70
2021/01/24 11:46:51;;;;;;;15.00;5.93;;;7.80;86.40;;;;;;5014221;28;20055;-70
2021/01/24 11:49:18;;;;;;;6.80;5.10;;;7.80;86.30;;;;;;5014453;28;20386;-70
2021/01/24 11:51:44;;;;;;;10.67;7.67;;;7.80;86.20;;;;;;5014594;28;20048;-70
2021/01/24 11:54:10;;;;;;;11.73;7.97;;;7.80;87.50;;;;;;5014441;28;20030;-70
2021/01/24 11:56:35;;;;;;;14.40;10.27;;;7.80;87.20;;;;;;5014346;28;20101;-69
2021/01/24 11:59:01;;;;;;;21.03;11.30;;;7.80;87.40;;;;;;5011806;28;20030;-70
2021/01/24 12:01:27;;;;;;;14.70;10.43;;;7.70;87.40;;;;;;5011380;28;20105;-70
2021/01/24 12:03:52;;;;;;;12.73;10.00;;;7.70;87.50;;;;;;5012525;28;20025;-70
2021/01/24 12:06:19;;;;;;;16.47;10.07;;;7.70;87.80;;;;;;5014437;28;20451;-69
2021/01/24 12:08:44;;;;;;;20.20;12.60;;;7.60;88.50;;;;;;5014164;28;20030;-70
2021/01/24 12:11:10;;;;;;;19.43;12.33;;;7.60;88.60;;;;;;5014067;28;20038;-69
2021/01/24 12:13:36;;;;;;;15.37;11.27;;;7.60;88.60;;;;;;5014388;28;20521;-69
2021/01/24 12:16:01;;;;;;;19.10;9.73;;;7.60;88.70;;;;;;5014150;28;20022;-69
2021/01/24 12:18:27;;;;;;;18.67;10.37;;;7.60;88.40;;;;;;5014149;28;20034;-70
2021/01/24 12:20:53;;;;;;;15.30;9.47;;;7.60;88.60;;;;;;5014354;28;20042;-69
2021/01/24 12:23:20;;;;;;;17.80;12.07;;;7.60;88.60;;;;;;5012255;28;20042;-69
2021/01/24 12:25:46;;;;;;;11.83;7.07;;;7.60;88.90;;;;;;5011046;28;20041;-69
2021/01/24 12:28:12;;;;;;;13.80;7.80;;;7.60;89.10;;;;;;5011035;28;20479;-69
2021/01/24 12:30:37;;;;;;;13.97;7.93;;;7.50;88.90;;;;;;5013121;28;20033;-69
2021/01/24 12:33:03;;;;;;;18.10;8.97;;;7.50;89.00;;;;;;5013903;28;20092;-70
2021/01/24 12:35:29;;;;;;;14.43;8.97;;;7.50;89.30;;;;;;5012985;28;20022;-70
2021/01/24 12:37:55;;;;;;;13.00;8.63;;;7.50;89.50;;;;;;5012893;28;20054;-69
2021/01/24 12:40:21;;;;;;;15.83;9.97;;;7.50;89.80;;;;;;5013536;28;20054;-69
2021/01/24 12:42:47;;;;;;;14.03;7.10;;;7.60;90.10;;;;;;5013482;28;20463;-68
2021/01/24 12:45:13;;;;;;;7.37;5.10;;;7.50;90.00;;;;;;5013336;28;20475;-69
2021/01/24 12:47:39;;;;;;;9.43;4.70;;;7.50;89.90;;;;;;5013409;28;20042;-69
2021/01/24 12:50:08;;;;;;;10.43;5.20;;;7.50;89.90;;;;;;5013375;28;20025;-69
2021/01/24 12:52:34;;;;;;;5.70;3.23;;;7.50;89.80;;;;;;5013055;28;20587;-68
2021/01/24 12:54:59;;;;;;;6.80;2.70;;;7.50;89.70;;;;;;5013216;28;20132;-72
2021/01/24 12:57:25;;;;;;;3.97;2.80;;;7.40;89.70;;;;;;5013208;28;20026;-72